Whittier, Alaska
Current Conditions -  °F | °C
As of 11:16 AM on Thursday 23 Oct 2014 (Local Time) from PATO Reporting Station
Haze Haze  
Wind Chill: 19°   Ceiling: 200
Heat Index: 25°   Visibility: 3mi
Dew Point: 25°   Wind: 5mph
Humidity: 100%   Direction: 310°NW
Pressure: 29.68"   Gusts: NA
Location:  60.77°N, 148.69°W
Report Text: PATO 231916Z AUTO 31004KT 3SM BR OVC002 M04/M04 A2968 RMK AO2 T10391039 TSNO
Loading
Personal Weather Stations






























Interactive Weather Map
Tropical Storm Tracking
New forecast layout! Learn more

10-Day Weather Forecast

Advertisements
Track Severe Weather on mobile